Weather at Ayawasi Airport

Public forecast

Using degrees Celsius for public forecast. Weather courtesy of forecast.io.

Closest aviation weather report (METAR) to Ayawasi Airport

Closest report is Frans Kaisiepo Airport, 218.8 nm (405.2 km) E. Retrieved 2022/01/17 16:00 UTC (24 minutes ago):

WABB 171600Z 31005KT 140V310 8000 SCT018 BKN100 25/24 Q1007 RERA NOSIG

Closest aviation forecast (TAF) to Ayawasi Airport

Closest forecast is Rendani Airport, 96.5 nm (178.8 km) E. Retrieved UTC (0 seconds ago):